Aviation Digital Data Service (ADDS)

Output produced by TAFs form (0039 UTC 23 February 2018)
found at http://www.aviationweather.gov/adds/tafs/
 
EGPF 230020Z AUTO 05004KT 7000 FEW041 M00/M02 Q1022
TAF EGPF 222304Z 2300/2324 17007KT 9999 SCT035 
     TEMPO 2300/2310 6000 
     PROB30 
     TEMPO 2300/2309 BKN012